Time;durP1;ratioP1;P1;durP2;ratioP2;P2;SDS_P1;SDS_P2;PMS_P1;PMS_P2;Temp;Humidity;BMP_temperature;BMP_pressure;BME280_temperature;BME280_humidity;BME280_pressure;Samples;Min_cycle;Max_cycle;Signal;HPM_P1;HPM_P2
2023/09/16 00:01:59;;;;;;;9.07;6.28;;;19.70;58.50;;;;;;5053029;28;20336;-31
2023/09/16 00:04:28;;;;;;;6.72;5.90;;;19.70;58.50;;;;;;5054034;28;20587;-31
2023/09/16 00:06:59;;;;;;;8.52;5.72;;;19.70;58.50;;;;;;5051074;28;20270;-31
2023/09/16 00:09:26;;;;;;;7.10;5.68;;;19.60;58.50;;;;;;5076737;28;20735;-32
2023/09/16 00:11:53;;;;;;;9.50;5.85;;;19.60;58.50;;;;;;5064118;28;20570;-32
2023/09/16 00:14:22;;;;;;;8.57;5.97;;;19.60;58.60;;;;;;5073020;28;20278;-31
2023/09/16 00:16:51;;;;;;;7.13;5.97;;;19.60;58.60;;;;;;5046450;28;20208;-31
2023/09/16 00:19:19;;;;;;;7.72;6.03;;;19.60;58.70;;;;;;5046161;28;20220;-31
2023/09/16 00:21:51;;;;;;;7.53;5.95;;;19.50;58.70;;;;;;5063888;28;20204;-32
2023/09/16 00:24:21;;;;;;;9.35;6.07;;;19.50;58.70;;;;;;5060006;28;20210;-32
2023/09/16 00:26:51;;;;;;;7.47;6.45;;;19.50;58.70;;;;;;5054243;28;20203;-32
2023/09/16 00:29:18;;;;;;;8.45;6.10;;;19.50;58.70;;;;;;5067445;28;20675;-32
2023/09/16 00:31:45;;;;;;;9.18;6.28;;;19.50;58.70;;;;;;5046346;28;20300;-31
2023/09/16 00:34:17;;;;;;;8.65;5.65;;;19.50;58.80;;;;;;5064646;28;20242;-31
2023/09/16 00:36:44;;;;;;;8.45;6.38;;;19.40;58.80;;;;;;5077865;28;20224;-31
2023/09/16 00:39:11;;;;;;;11.27;6.35;;;19.40;58.80;;;;;;5056242;28;20317;-26
2023/09/16 00:41:41;;;;;;;10.07;6.45;;;19.40;58.80;;;;;;5067643;28;20286;-26
2023/09/16 00:44:10;;;;;;;9.68;6.72;;;19.40;58.80;;;;;;5060444;28;20744;-27
2023/09/16 00:46:45;;;;;;;9.07;6.57;;;19.30;58.80;;;;;;5048314;28;20646;-27
2023/09/16 00:49:15;;;;;;;10.68;5.55;;;19.30;58.90;;;;;;5065727;28;20202;-27
2023/09/16 00:51:44;;;;;;;7.47;6.18;;;19.30;58.90;;;;;;5064806;28;20295;-27
2023/09/16 00:54:14;;;;;;;7.53;6.50;;;19.30;58.90;;;;;;5063109;28;20216;-27
2023/09/16 00:56:48;;;;;;;7.97;5.90;;;19.20;58.90;;;;;;5059432;28;20213;-26
2023/09/16 00:59:20;;;;;;;10.40;6.75;;;19.20;59.00;;;;;;5058757;28;20708;-27
2023/09/16 01:01:51;;;;;;;9.65;6.82;;;19.20;59.00;;;;;;5059646;28;20235;-26
2023/09/16 01:04:22;;;;;;;9.52;6.90;;;19.20;59.00;;;;;;5073910;28;20204;-26
2023/09/16 01:06:54;;;;;;;9.77;6.47;;;19.20;59.10;;;;;;5057096;28;20278;-26
2023/09/16 01:09:21;;;;;;;10.55;6.75;;;19.20;59.10;;;;;;5067158;28;20215;-32
2023/09/16 01:11:48;;;;;;;7.72;6.57;;;19.10;59.10;;;;;;5064025;28;20297;-31
2023/09/16 01:14:20;;;;;;;10.52;6.70;;;19.10;59.10;;;;;;5056238;28;20262;-31
2023/09/16 01:16:55;;;;;;;8.07;7.15;;;19.10;59.10;;;;;;5052914;28;20231;-31
2023/09/16 01:20:01;;;;;;;14.07;7.25;;;19.00;59.10;;;;;;5064507;28;20227;-31
2023/09/16 01:22:32;;;;;;;7.75;6.55;;;19.00;59.30;;;;;;5054664;28;20777;-32
2023/09/16 01:25:05;;;;;;;10.00;7.45;;;19.00;59.20;;;;;;5061957;28;20283;-32
2023/09/16 01:27:34;;;;;;;9.77;6.90;;;19.00;59.20;;;;;;5053770;28;20280;-31
2023/09/16 01:30:02;;;;;;;10.48;7.10;;;18.90;59.20;;;;;;5051324;28;20693;-31
2023/09/16 01:32:45;;;;;;;8.48;7.28;;;18.90;59.20;;;;;;5050543;28;20211;-31
2023/09/16 01:35:19;;;;;;;11.35;7.13;;;18.90;59.30;;;;;;5046809;28;20281;-32
2023/09/16 01:37:46;;;;;;;8.38;6.85;;;18.90;59.30;;;;;;5064199;28;20321;-32
2023/09/16 01:40:15;;;;;;;10.13;7.90;;;18.80;59.30;;;;;;5064589;28;20781;-32
2023/09/16 01:42:45;;;;;;;9.50;7.20;;;18.80;59.40;;;;;;5065244;28;20223;-31
2023/09/16 01:45:15;;;;;;;9.70;7.20;;;18.80;59.40;;;;;;5060243;28;20277;-32
2023/09/16 01:47:45;;;;;;;9.27;7.40;;;18.80;59.40;;;;;;5054582;28;20223;-31
2023/09/16 01:50:13;;;;;;;8.90;7.78;;;18.70;59.40;;;;;;5045533;28;20224;-32
2023/09/16 01:52:42;;;;;;;9.98;7.00;;;18.70;59.50;;;;;;5065411;28;20207;-31
2023/09/16 01:55:12;;;;;;;10.30;7.53;;;18.70;59.50;;;;;;5061785;28;20239;-31
2023/09/16 01:57:41;;;;;;;10.73;7.05;;;18.70;59.50;;;;;;5048634;28;20739;-31
2023/09/16 02:00:09;;;;;;;12.52;7.55;;;18.60;59.50;;;;;;5076240;28;20219;-31
2023/09/16 02:02:36;;;;;;;8.85;7.78;;;18.60;59.60;;;;;;5060998;28;20323;-32
2023/09/16 02:05:06;;;;;;;10.07;7.20;;;18.60;59.60;;;;;;5052073;28;20347;-31
2023/09/16 02:07:36;;;;;;;10.70;7.80;;;18.60;59.60;;;;;;5077899;28;20200;-31
2023/09/16 02:10:06;;;;;;;10.98;8.10;;;18.60;59.70;;;;;;5063728;28;20290;-32
2023/09/16 02:12:34;;;;;;;11.77;8.13;;;18.60;59.70;;;;;;5064249;28;20223;-31
2023/09/16 02:15:04;;;;;;;11.90;7.72;;;18.60;59.80;;;;;;5055387;28;20192;-32
2023/09/16 02:17:31;;;;;;;10.70;7.90;;;18.50;59.70;;;;;;5057743;28;20587;-32
2023/09/16 02:20:03;;;;;;;11.93;7.90;;;18.60;59.90;;;;;;5062650;28;20227;-32
2023/09/16 02:22:33;;;;;;;8.88;7.97;;;18.50;59.80;;;;;;5064409;28;20211;-32
2023/09/16 02:25:02;;;;;;;14.52;8.65;;;18.50;59.90;;;;;;5079359;28;20743;-32
2023/09/16 02:27:33;;;;;;;13.05;9.60;;;18.50;59.90;;;;;;5049528;28;20200;-31
2023/09/16 02:30:00;;;;;;;10.55;8.55;;;18.50;59.90;;;;;;5086053;28;20298;-32
2023/09/16 02:32:30;;;;;;;13.73;8.15;;;18.50;59.90;;;;;;5048415;28;20231;-27
2023/09/16 02:34:57;;;;;;;10.77;8.48;;;18.50;59.90;;;;;;5079429;28;20208;-26
2023/09/16 02:37:26;;;;;;;10.13;8.65;;;18.50;60.00;;;;;;5063509;28;20223;-26
2023/09/16 02:39:58;;;;;;;11.15;8.00;;;18.50;60.10;;;;;;5059354;28;20618;-26
2023/09/16 02:42:27;;;;;;;9.55;8.27;;;18.50;60.10;;;;;;5061783;28;20199;-27
2023/09/16 02:44:57;;;;;;;10.07;8.43;;;18.50;60.10;;;;;;5064346;28;20184;-26
2023/09/16 02:47:24;;;;;;;12.95;7.63;;;18.50;60.10;;;;;;5069784;28;20214;-27
2023/09/16 02:49:53;;;;;;;9.60;7.90;;;18.40;60.10;;;;;;5064888;28;20206;-26
2023/09/16 02:52:21;;;;;;;11.07;8.48;;;18.40;60.10;;;;;;5074771;28;20199;-26
2023/09/16 02:54:48;;;;;;;11.48;8.10;;;18.40;60.10;;;;;;5060684;28;20332;-26
2023/09/16 02:57:20;;;;;;;9.00;7.43;;;18.40;60.20;;;;;;5065884;28;20219;-26
2023/09/16 02:59:47;;;;;;;10.80;8.20;;;18.40;60.20;;;;;;5064454;28;20225;-27
2023/09/16 03:02:15;;;;;;;11.63;7.50;;;18.40;60.20;;;;;;5055810;28;20318;-26
2023/09/16 03:04:45;;;;;;;9.70;7.63;;;18.40;60.20;;;;;;5061711;28;20222;-27
2023/09/16 03:07:15;;;;;;;8.65;7.57;;;18.40;60.30;;;;;;5061511;28;20299;-27
2023/09/16 03:09:42;;;;;;;9.40;7.47;;;18.30;60.30;;;;;;5062238;28;20332;-27
2023/09/16 03:12:14;;;;;;;9.73;7.25;;;18.40;60.40;;;;;;5058646;28;20844;-27
2023/09/16 03:14:47;;;;;;;13.45;8.15;;;18.30;60.40;;;;;;5068617;28;20319;-27
2023/09/16 03:17:14;;;;;;;9.45;6.78;;;18.30;60.40;;;;;;5056606;28;20697;-27
2023/09/16 03:19:41;;;;;;;11.15;8.57;;;18.30;60.40;;;;;;5066365;28;20222;-27
2023/09/16 03:22:08;;;;;;;10.52;8.75;;;18.30;60.40;;;;;;5081824;28;20739;-27
2023/09/16 03:24:44;;;;;;;15.60;9.38;;;18.30;61.30;;;;;;5065074;28;20199;-27
2023/09/16 03:27:13;;;;;;;11.93;8.98;;;18.20;60.40;;;;;;5057023;28;20203;-27
2023/09/16 03:29:43;;;;;;;9.38;8.32;;;18.20;60.50;;;;;;5046101;28;20212;-27
2023/09/16 03:32:10;;;;;;;10.27;8.18;;;18.20;60.50;;;;;;5052355;28;20212;-27
2023/09/16 03:34:37;;;;;;;11.00;8.65;;;18.20;61.40;;;;;;5064744;28;20199;-27
2023/09/16 03:37:04;;;;;;;11.38;8.85;;;18.20;60.60;;;;;;5060457;28;20206;-27
2023/09/16 03:39:31;;;;;;;11.90;8.77;;;18.20;60.60;;;;;;5042696;28;20236;-27
2023/09/16 03:42:00;;;;;;;13.88;9.30;;;18.10;60.50;;;;;;5043362;28;20224;-27
2023/09/16 03:44:28;;;;;;;10.25;7.95;;;18.10;60.60;;;;;;5049818;28;20253;-27
2023/09/16 03:46:59;;;;;;;10.13;8.25;;;18.10;60.70;;;;;;5059559;28;20192;-27
2023/09/16 03:49:26;;;;;;;12.15;9.00;;;18.10;60.70;;;;;;5058495;28;20772;-27
2023/09/16 03:51:56;;;;;;;11.60;8.40;;;18.10;60.80;;;;;;5067515;28;20207;-27
2023/09/16 03:54:23;;;;;;;10.77;8.32;;;18.10;60.80;;;;;;5079380;28;20204;-27
2023/09/16 03:56:50;;;;;;;10.07;8.82;;;18.10;60.90;;;;;;5059769;28;20286;-27
2023/09/16 03:59:22;;;;;;;9.85;8.10;;;18.00;60.80;;;;;;5052303;28;20203;-27
2023/09/16 04:01:49;;;;;;;9.18;8.20;;;18.00;60.90;;;;;;5065706;28;20334;-27
2023/09/16 04:04:21;;;;;;;10.23;7.93;;;18.00;60.80;;;;;;5059007;28;20939;-27
2023/09/16 04:06:48;;;;;;;11.77;8.77;;;18.00;60.90;;;;;;5061347;28;20208;-27
2023/09/16 04:09:20;;;;;;;11.13;8.82;;;18.00;60.90;;;;;;5063722;28;20199;-27
2023/09/16 04:11:49;;;;;;;9.93;8.57;;;18.00;61.00;;;;;;5063922;28;20638;-27
2023/09/16 04:14:17;;;;;;;9.88;8.65;;;17.90;60.90;;;;;;5080196;28;20242;-27
2023/09/16 04:16:47;;;;;;;12.32;8.82;;;17.90;61.00;;;;;;5065507;28;20232;-27
2023/09/16 04:19:14;;;;;;;11.68;9.00;;;17.90;61.00;;;;;;5059508;28;20269;-27
2023/09/16 04:21:46;;;;;;;10.98;9.07;;;17.90;61.10;;;;;;5062867;28;20205;-27
2023/09/16 04:24:13;;;;;;;12.38;9.35;;;17.90;61.00;;;;;;5064627;28;20277;-27
2023/09/16 04:26:41;;;;;;;10.55;8.70;;;17.80;61.00;;;;;;5066494;28;20298;-27
2023/09/16 04:29:12;;;;;;;10.32;8.73;;;17.80;61.00;;;;;;5064337;28;20231;-27
2023/09/16 04:31:45;;;;;;;10.05;8.63;;;17.80;61.00;;;;;;5049305;28;20212;-27
2023/09/16 04:34:14;;;;;;;12.05;8.90;;;17.80;61.10;;;;;;5079548;28;20199;-27
2023/09/16 04:36:46;;;;;;;8.60;7.70;;;17.80;61.20;;;;;;5057475;28;20249;-27
2023/09/16 04:39:17;;;;;;;10.68;8.60;;;17.70;61.10;;;;;;5067278;28;20290;-27
2023/09/16 04:41:50;;;;;;;15.57;9.48;;;17.70;61.20;;;;;;5061965;28;20598;-27
2023/09/16 04:44:20;;;;;;;10.00;8.90;;;17.70;61.30;;;;;;5048506;28;20219;-26
2023/09/16 04:46:56;;;;;;;10.23;8.27;;;17.70;61.30;;;;;;5053281;28;20192;-27
2023/09/16 04:49:23;;;;;;;10.55;9.07;;;17.60;61.30;;;;;;5047826;28;20230;-27
2023/09/16 04:51:50;;;;;;;10.43;8.23;;;17.60;61.30;;;;;;5065674;28;20370;-27
2023/09/16 04:54:23;;;;;;;10.52;8.70;;;17.60;61.40;;;;;;5065809;28;20801;-27
2023/09/16 04:56:51;;;;;;;10.38;9.10;;;17.60;61.40;;;;;;5065472;28;20287;-27
2023/09/16 04:59:18;;;;;;;12.38;8.63;;;17.60;61.50;;;;;;5079416;28;20693;-27
2023/09/16 05:01:45;;;;;;;10.82;8.18;;;17.60;61.50;;;;;;5065861;28;20411;-27
2023/09/16 05:04:12;;;;;;;13.38;9.32;;;17.60;61.50;;;;;;5061088;28;20202;-27
2023/09/16 05:06:39;;;;;;;12.25;10.00;;;17.60;61.60;;;;;;5057657;28;20648;-27
2023/09/16 05:09:11;;;;;;;12.85;8.98;;;17.60;61.60;;;;;;5055906;28;20215;-27
2023/09/16 05:11:38;;;;;;;9.82;8.82;;;17.60;61.60;;;;;;5081885;28;20634;-27
2023/09/16 05:14:08;;;;;;;11.75;10.18;;;17.60;61.60;;;;;;5068076;28;20542;-27
2023/09/16 05:16:35;;;;;;;11.37;9.83;;;17.60;61.60;;;;;;5069649;28;20219;-27
2023/09/16 05:19:05;;;;;;;14.07;10.32;;;17.60;61.70;;;;;;5052169;28;20227;-27
2023/09/16 05:21:35;;;;;;;13.68;9.65;;;17.60;61.80;;;;;;5058524;28;20321;-27
2023/09/16 05:24:02;;;;;;;11.98;9.55;;;17.50;61.70;;;;;;5056369;28;20615;-27
2023/09/16 05:26:31;;;;;;;12.63;9.85;;;17.50;61.60;;;;;;5060605;28;20351;-27
2023/09/16 05:29:01;;;;;;;11.77;9.80;;;17.50;61.70;;;;;;5082392;28;20204;-27
2023/09/16 05:31:28;;;;;;;12.10;9.35;;;17.50;61.70;;;;;;5059243;28;20273;-27
2023/09/16 05:34:00;;;;;;;11.52;9.43;;;17.50;61.80;;;;;;5060522;28;20679;-27
2023/09/16 05:36:32;;;;;;;17.83;10.75;;;17.50;61.90;;;;;;5058218;28;20214;-27
2023/09/16 05:39:00;;;;;;;14.77;10.27;;;17.50;61.90;;;;;;5063919;28;20246;-27
2023/09/16 05:41:28;;;;;;;11.23;9.32;;;17.40;61.90;;;;;;5050818;28;20216;-27
2023/09/16 05:43:58;;;;;;;13.20;10.10;;;17.40;61.90;;;;;;5062924;28;20231;-27
2023/09/16 05:46:25;;;;;;;13.00;10.15;;;17.40;62.00;;;;;;5064119;28;20263;-27
2023/09/16 05:49:06;;;;;;;12.25;10.57;;;17.40;62.00;;;;;;5063265;28;20199;-27
2023/09/16 05:51:33;;;;;;;12.23;10.15;;;17.40;62.00;;;;;;5045141;28;20277;-27
2023/09/16 05:54:01;;;;;;;13.07;9.68;;;17.40;62.10;;;;;;5045289;28;20219;-28
2023/09/16 05:56:28;;;;;;;11.05;9.27;;;17.40;62.10;;;;;;5063975;28;20216;-28
2023/09/16 05:58:57;;;;;;;11.68;9.45;;;17.40;62.20;;;;;;5045456;28;20207;-27
2023/09/16 06:01:24;;;;;;;13.32;10.15;;;17.40;62.20;;;;;;5068170;28;20653;-27
2023/09/16 06:03:54;;;;;;;14.30;10.50;;;17.40;62.30;;;;;;5066540;28;20192;-27
2023/09/16 06:06:24;;;;;;;13.43;10.55;;;17.40;62.30;;;;;;5043955;28;20217;-28
2023/09/16 06:08:51;;;;;;;14.82;10.38;;;17.50;62.40;;;;;;5044923;28;20196;-27
2023/09/16 06:11:18;;;;;;;14.27;10.27;;;17.50;62.50;;;;;;5047141;28;20227;-27
2023/09/16 06:13:46;;;;;;;12.95;10.00;;;17.50;62.50;;;;;;5051858;28;20704;-28
2023/09/16 06:16:15;;;;;;;13.30;8.90;;;17.50;62.50;;;;;;5063404;28;20238;-28
2023/09/16 06:18:45;;;;;;;15.07;9.57;;;17.50;62.50;;;;;;5060488;28;20203;-27
2023/09/16 06:21:13;;;;;;;15.57;9.43;;;17.50;62.50;;;;;;5050772;28;20211;-27
2023/09/16 06:23:42;;;;;;;16.25;10.02;;;17.50;62.60;;;;;;5057134;28;20347;-28
2023/09/16 06:26:10;;;;;;;13.02;9.10;;;17.60;62.70;;;;;;5044304;28;20481;-27
2023/09/16 06:28:37;;;;;;;15.05;9.32;;;17.60;62.80;;;;;;5042890;28;20277;-27
2023/09/16 06:31:07;;;;;;;16.27;9.82;;;17.60;62.80;;;;;;5062757;28;20207;-27
2023/09/16 06:33:34;;;;;;;13.27;10.13;;;17.60;62.80;;;;;;5047785;28;20314;-27
2023/09/16 06:36:07;;;;;;;15.38;9.55;;;17.60;62.90;;;;;;5053314;28;20750;-28
2023/09/16 06:38:36;;;;;;;13.68;10.90;;;17.70;63.00;;;;;;5068923;28;20209;-28
2023/09/16 06:41:03;;;;;;;13.20;9.73;;;17.70;63.00;;;;;;5045671;28;20309;-28
2023/09/16 06:43:31;;;;;;;15.27;10.02;;;17.70;63.00;;;;;;5060981;28;20231;-27
2023/09/16 06:46:00;;;;;;;10.75;9.00;;;17.80;63.10;;;;;;5062110;28;20224;-28
2023/09/16 06:48:30;;;;;;;15.07;10.15;;;17.80;63.10;;;;;;5047406;28;20200;-27
2023/09/16 06:51:01;;;;;;;23.48;9.98;;;17.90;63.20;;;;;;5050412;28;20212;-28
2023/09/16 06:53:29;;;;;;;19.27;9.35;;;17.90;63.20;;;;;;5063150;28;20208;-28
2023/09/16 06:55:56;;;;;;;17.20;10.48;;;18.00;63.20;;;;;;5060936;28;20299;-28
2023/09/16 06:58:25;;;;;;;16.02;9.18;;;18.00;63.30;;;;;;5047857;28;20255;-28
2023/09/16 07:01:12;;;;;;;15.80;8.68;;;18.10;63.30;;;;;;5058894;28;20332;-28
2023/09/16 07:03:40;;;;;;;10.73;9.00;;;18.10;63.20;;;;;;5056193;28;20258;-27
2023/09/16 07:06:08;;;;;;;13.48;9.85;;;18.20;63.30;;;;;;5065687;28;20202;-28
2023/09/16 07:08:35;;;;;;;15.63;9.93;;;18.20;63.30;;;;;;5064053;28;20697;-28
2023/09/16 07:11:02;;;;;;;21.67;9.18;;;18.20;63.30;;;;;;5061111;28;20645;-27
2023/09/16 07:13:34;;;;;;;19.20;9.43;;;18.20;63.50;;;;;;5045555;28;20230;-27
2023/09/16 07:16:03;;;;;;;33.28;10.90;;;18.30;63.40;;;;;;5065351;28;20712;-27
2023/09/16 07:18:31;;;;;;;19.80;11.18;;;18.30;63.40;;;;;;5065712;28;20323;-27
2023/09/16 07:20:58;;;;;;;14.43;11.57;;;18.30;63.40;;;;;;5073855;28;20686;-27
2023/09/16 07:23:25;;;;;;;13.45;10.82;;;18.40;63.50;;;;;;5050833;28;20199;-28
2023/09/16 07:25:58;;;;;;;11.90;10.45;;;18.40;63.50;;;;;;5067578;28;20215;-28
2023/09/16 07:28:27;;;;;;;12.95;10.63;;;18.40;63.60;;;;;;5080297;28;20215;-28
2023/09/16 07:30:56;;;;;;;14.68;10.25;;;18.50;63.60;;;;;;5049160;28;20204;-27
2023/09/16 07:33:26;;;;;;;13.23;10.48;;;18.50;63.70;;;;;;5052220;28;20262;-27
2023/09/16 07:35:54;;;;;;;14.85;9.65;;;18.60;63.70;;;;;;5067290;28;20705;-27
2023/09/16 07:38:21;;;;;;;13.95;10.13;;;18.60;63.70;;;;;;5060976;28;20223;-28
2023/09/16 07:40:52;;;;;;;13.18;9.75;;;18.70;63.70;;;;;;5067703;28;20249;-28
2023/09/16 07:43:20;;;;;;;12.25;9.27;;;18.70;63.70;;;;;;5065386;28;20204;-28
2023/09/16 07:45:47;;;;;;;13.82;9.93;;;18.80;63.80;;;;;;5055995;28;20723;-28
2023/09/16 07:48:17;;;;;;;11.07;9.80;;;18.80;63.70;;;;;;5055959;28;20440;-28
2023/09/16 07:50:47;;;;;;;11.00;9.15;;;18.90;63.90;;;;;;5052023;28;20226;-27
2023/09/16 07:53:14;;;;;;;10.25;9.10;;;19.00;63.80;;;;;;5049244;28;20570;-27
2023/09/16 07:55:41;;;;;;;9.43;7.80;;;19.00;63.80;;;;;;5047996;28;20246;-28
2023/09/16 07:58:08;;;;;;;9.88;7.65;;;19.00;63.80;;;;;;5046456;28;20219;-28
2023/09/16 08:00:35;;;;;;;14.77;9.00;;;19.10;63.90;;;;;;5060507;28;20779;-28
2023/09/16 08:03:05;;;;;;;9.18;8.25;;;19.20;64.00;;;;;;5052831;28;20742;-28
2023/09/16 08:05:38;;;;;;;11.15;8.77;;;19.20;63.90;;;;;;5049426;28;20250;-28
2023/09/16 08:08:05;;;;;;;9.43;7.97;;;19.30;63.90;;;;;;5051906;28;20208;-28
2023/09/16 08:10:37;;;;;;;12.02;8.38;;;19.30;63.90;;;;;;5078941;28;20211;-28
2023/09/16 08:13:04;;;;;;;9.07;7.60;;;19.40;64.00;;;;;;5065117;28;20203;-27
2023/09/16 08:15:31;;;;;;;9.63;7.43;;;19.40;63.90;;;;;;5060386;28;20200;-28
2023/09/16 08:18:01;;;;;;;11.45;7.70;;;19.50;64.00;;;;;;5068603;28;20321;-28
2023/09/16 08:20:32;;;;;;;9.52;6.90;;;19.60;64.00;;;;;;5054813;28;20199;-28
2023/09/16 08:23:00;;;;;;;10.57;7.22;;;19.60;64.00;;;;;;5050831;28;20187;-28
2023/09/16 08:25:30;;;;;;;9.82;6.95;;;19.70;64.10;;;;;;5065377;28;20685;-28
2023/09/16 08:28:00;;;;;;;9.25;6.70;;;19.80;64.10;;;;;;5050866;28;20696;-28
2023/09/16 08:30:29;;;;;;;7.25;6.03;;;19.80;64.10;;;;;;5048711;28;20192;-28
2023/09/16 08:32:59;;;;;;;7.05;5.93;;;19.90;64.20;;;;;;5063245;28;20207;-28
2023/09/16 08:35:29;;;;;;;12.77;6.80;;;19.90;64.20;;;;;;5052382;28;20293;-28
2023/09/16 08:37:58;;;;;;;8.93;6.22;;;20.00;64.30;;;;;;5058852;28;20196;-28
2023/09/16 08:40:29;;;;;;;6.85;5.35;;;20.10;64.30;;;;;;5068504;28;20195;-28
2023/09/16 08:43:25;;;;;;;9.88;5.97;;;20.10;64.20;;;;;;5067890;28;20195;-28
2023/09/16 08:46:08;;;;;;;13.27;5.82;;;20.20;64.40;;;;;;5052161;28;20216;-28
2023/09/16 08:48:43;;;;;;;5.72;5.13;;;20.30;64.50;;;;;;5060795;28;20198;-29
2023/09/16 08:51:19;;;;;;;9.77;6.10;;;20.40;64.40;;;;;;5064311;28;20208;-27
2023/09/16 08:53:52;;;;;;;7.93;5.88;;;20.50;64.50;;;;;;5048932;28;20240;-28
2023/09/16 08:56:22;;;;;;;6.22;4.90;;;20.50;64.50;;;;;;5053289;28;20216;-28
2023/09/16 08:58:53;;;;;;;6.97;5.15;;;20.60;64.50;;;;;;5054147;28;20219;-27
2023/09/16 09:01:20;;;;;;;6.97;5.25;;;20.70;64.60;;;;;;5067812;28;20262;-27
2023/09/16 09:03:50;;;;;;;9.88;5.25;;;20.80;64.50;;;;;;5056724;28;20208;-27
2023/09/16 09:06:21;;;;;;;6.20;5.32;;;20.90;64.60;;;;;;5061708;28;20193;-27
2023/09/16 09:09:06;;;;;;;10.13;5.53;;;20.90;64.60;;;;;;5055531;28;20204;-27
2023/09/16 09:11:36;;;;;;;8.52;5.45;;;21.00;64.60;;;;;;5044288;28;20243;-27
2023/09/16 09:14:10;;;;;;;6.57;5.00;;;21.10;64.60;;;;;;5055349;28;20199;-27
2023/09/16 09:16:41;;;;;;;6.47;5.20;;;21.20;64.50;;;;;;5052111;28;20322;-27
2023/09/16 09:19:10;;;;;;;6.05;5.18;;;21.20;64.60;;;;;;5051881;28;20203;-27
2023/09/16 09:21:37;;;;;;;6.78;4.88;;;21.30;64.60;;;;;;5049950;28;20298;-27
2023/09/16 09:24:05;;;;;;;7.47;5.38;;;21.40;64.70;;;;;;5044373;28;20204;-27
2023/09/16 09:26:34;;;;;;;5.82;4.97;;;21.50;64.60;;;;;;5045847;28;20239;-27
2023/09/16 09:29:02;;;;;;;5.82;5.22;;;21.60;64.60;;;;;;5049566;28;20203;-27
2023/09/16 09:31:30;;;;;;;6.38;4.90;;;21.70;64.60;;;;;;5079453;28;20274;-27
2023/09/16 09:34:00;;;;;;;6.00;5.40;;;21.70;64.50;;;;;;5063272;28;20703;-27
2023/09/16 09:36:30;;;;;;;5.53;4.93;;;21.80;64.40;;;;;;5061947;28;20294;-27
2023/09/16 09:39:01;;;;;;;6.30;4.97;;;21.80;64.40;;;;;;5064035;28;20219;-27
2023/09/16 09:41:45;;;;;;;9.27;5.18;;;21.90;64.40;;;;;;5049035;28;20228;-33
2023/09/16 09:44:14;;;;;;;5.93;4.88;;;22.00;64.50;;;;;;5052599;28;20200;-33
2023/09/16 09:46:46;;;;;;;6.57;5.38;;;22.00;64.40;;;;;;5045038;28;20219;-33
2023/09/16 09:49:16;;;;;;;5.93;5.30;;;22.10;64.40;;;;;;5046451;28;20764;-33
2023/09/16 09:51:48;;;;;;;5.38;4.93;;;22.10;64.30;;;;;;5045630;28;20204;-33
2023/09/16 09:54:18;;;;;;;5.82;4.55;;;22.20;64.30;;;;;;5045772;28;20551;-33
2023/09/16 09:56:46;;;;;;;5.40;4.60;;;22.20;64.20;;;;;;5043967;28;20219;-33
2023/09/16 09:59:15;;;;;;;6.57;5.18;;;22.30;64.20;;;;;;5047057;28;20211;-33
2023/09/16 10:01:44;;;;;;;5.03;4.53;;;22.30;64.20;;;;;;5046166;28;20282;-34
2023/09/16 10:04:12;;;;;;;5.25;4.60;;;22.40;64.20;;;;;;5059901;28;20287;-33
2023/09/16 10:06:40;;;;;;;7.95;5.07;;;22.40;64.10;;;;;;5061291;28;20277;-33
2023/09/16 10:09:09;;;;;;;8.55;5.00;;;22.50;64.20;;;;;;5068450;28;20203;-33
2023/09/16 10:11:40;;;;;;;5.47;4.47;;;22.50;64.20;;;;;;5066334;28;20207;-33
2023/09/16 10:14:07;;;;;;;4.82;4.13;;;22.60;64.20;;;;;;5058085;28;20573;-33
2023/09/16 10:16:35;;;;;;;8.73;4.50;;;22.60;64.20;;;;;;5065975;28;20207;-33
2023/09/16 10:19:02;;;;;;;6.07;4.70;;;22.70;64.20;;;;;;5050956;28;20208;-33
2023/09/16 10:21:32;;;;;;;6.15;4.60;;;22.70;64.10;;;;;;5054778;28;20550;-33
2023/09/16 10:24:02;;;;;;;9.95;5.45;;;22.80;64.20;;;;;;5065442;28;20211;-33
2023/09/16 10:26:30;;;;;;;6.68;5.05;;;22.80;64.00;;;;;;5059979;28;20204;-33
2023/09/16 10:28:58;;;;;;;5.47;4.78;;;22.90;63.90;;;;;;5045432;28;20200;-34
2023/09/16 10:31:32;;;;;;;5.30;4.80;;;22.90;64.00;;;;;;5049979;28;20224;-34
2023/09/16 10:34:03;;;;;;;6.13;4.60;;;23.00;64.00;;;;;;5051173;28;20693;-34
2023/09/16 10:36:35;;;;;;;6.03;5.00;;;23.00;63.90;;;;;;5058516;28;20208;-27
2023/09/16 10:39:03;;;;;;;7.50;5.00;;;23.10;63.90;;;;;;5046984;28;20211;-27
2023/09/16 10:41:31;;;;;;;7.78;5.55;;;23.20;63.90;;;;;;5060358;28;20839;-34
2023/09/16 10:44:00;;;;;;;6.63;5.30;;;23.20;63.70;;;;;;5046563;28;20681;-27
2023/09/16 10:46:33;;;;;;;6.97;5.78;;;23.20;63.70;;;;;;5044627;28;20274;-27
2023/09/16 10:49:03;;;;;;;6.15;5.00;;;23.30;63.70;;;;;;5053787;28;20705;-27
2023/09/16 10:51:39;;;;;;;6.20;4.60;;;23.30;63.70;;;;;;5078367;28;20198;-34
2023/09/16 10:54:26;;;;;;;6.25;5.75;;;23.40;63.70;;;;;;5084949;28;20736;-33
2023/09/16 10:56:55;;;;;;;6.18;5.40;;;23.40;63.60;;;;;;5051741;28;20696;-37
2023/09/16 10:59:27;;;;;;;5.80;5.20;;;23.50;63.50;;;;;;5056619;28;20216;-34
2023/09/16 11:02:04;;;;;;;8.20;6.13;;;23.50;63.60;;;;;;5056657;28;20224;-34
2023/09/16 11:04:34;;;;;;;6.18;5.53;;;23.60;63.60;;;;;;5066166;28;20282;-33
2023/09/16 11:07:04;;;;;;;8.32;5.50;;;23.60;63.50;;;;;;5070474;28;20210;-34
2023/09/16 11:09:35;;;;;;;7.95;5.43;;;23.70;63.60;;;;;;5060285;28;20207;-34
2023/09/16 11:12:08;;;;;;;7.18;5.90;;;23.80;63.60;;;;;;5064578;28;20203;-34
2023/09/16 11:14:40;;;;;;;9.43;5.70;;;23.80;63.40;;;;;;5068106;28;20295;-34
2023/09/16 11:17:14;;;;;;;8.38;5.63;;;23.90;63.50;;;;;;5067520;28;20333;-34
2023/09/16 11:19:42;;;;;;;6.15;5.05;;;23.90;63.50;;;;;;5059158;28;20278;-34
2023/09/16 11:22:09;;;;;;;5.32;4.45;;;24.00;63.40;;;;;;5074997;28;20215;-34
2023/09/16 11:24:37;;;;;;;5.50;5.00;;;24.00;63.50;;;;;;5069824;28;20206;-34
2023/09/16 11:27:09;;;;;;;7.63;5.30;;;24.10;63.50;;;;;;5067359;28;20734;-34
2023/09/16 11:29:39;;;;;;;6.03;5.28;;;24.20;63.60;;;;;;5066478;28;20660;-34
2023/09/16 11:32:08;;;;;;;6.68;6.05;;;24.30;63.60;;;;;;5055776;28;20243;-34
2023/09/16 11:34:40;;;;;;;6.68;5.95;;;24.30;63.40;;;;;;5063509;28;20211;-34
2023/09/16 11:37:10;;;;;;;6.97;5.63;;;24.30;63.10;;;;;;5066489;28;20191;-34
2023/09/16 11:39:42;;;;;;;9.75;5.28;;;24.40;63.00;;;;;;5060324;28;20662;-35
2023/09/16 11:42:14;;;;;;;6.40;5.70;;;24.50;63.10;;;;;;5047528;28;20524;-34
2023/09/16 11:44:42;;;;;;;6.57;5.32;;;24.50;63.10;;;;;;5053881;28;20261;-34
2023/09/16 11:47:11;;;;;;;6.85;5.40;;;24.50;62.80;;;;;;5049926;28;20199;-33
2023/09/16 11:49:41;;;;;;;5.88;4.90;;;24.60;62.90;;;;;;5053357;28;20196;-35
2023/09/16 11:52:11;;;;;;;5.03;4.38;;;24.60;62.80;;;;;;5055887;28;20216;-34
2023/09/16 11:54:40;;;;;;;8.07;5.22;;;24.70;63.00;;;;;;5056933;28;20618;-34
2023/09/16 11:57:08;;;;;;;6.72;4.97;;;24.80;62.90;;;;;;5063732;28;20265;-34
2023/09/16 11:59:36;;;;;;;5.10;4.60;;;24.80;62.90;;;;;;5063505;28;20708;-34
2023/09/16 12:02:07;;;;;;;6.10;5.50;;;24.90;63.00;;;;;;5061155;28;20709;-28
2023/09/16 12:04:40;;;;;;;6.65;4.68;;;25.00;63.00;;;;;;5057633;28;20315;-27
2023/09/16 12:07:10;;;;;;;5.85;5.10;;;25.00;62.90;;;;;;5057876;28;20295;-27
2023/09/16 12:09:39;;;;;;;5.90;5.40;;;25.10;62.70;;;;;;5053539;28;20230;-27
2023/09/16 12:12:08;;;;;;;6.03;5.13;;;25.20;62.60;;;;;;5062882;28;20693;-27
2023/09/16 12:14:42;;;;;;;5.05;4.55;;;25.20;62.70;;;;;;5067549;28;20272;-28
2023/09/16 12:17:10;;;;;;;6.90;5.20;;;25.30;62.80;;;;;;5056304;28;20246;-27
2023/09/16 12:19:53;;;;;;;6.50;5.32;;;25.30;62.80;;;;;;5065967;28;20228;-27
2023/09/16 12:22:21;;;;;;;6.03;5.40;;;25.30;62.50;;;;;;5077623;28;20220;-28
2023/09/16 12:24:54;;;;;;;6.75;4.95;;;25.40;61.60;;;;;;5051561;28;20230;-27
2023/09/16 12:27:24;;;;;;;5.93;5.30;;;25.40;61.50;;;;;;5056179;28;20557;-27
2023/09/16 12:29:53;;;;;;;5.00;4.55;;;25.50;62.20;;;;;;5054423;28;20222;-28
2023/09/16 12:32:23;;;;;;;6.88;5.07;;;25.50;62.20;;;;;;5050938;28;20196;-27
2023/09/16 12:35:07;;;;;;;5.38;4.53;;;25.50;62.50;;;;;;5048095;28;20289;-27
2023/09/16 12:37:34;;;;;;;8.85;4.60;;;25.60;62.40;;;;;;5047858;28;20235;-27
2023/09/16 12:40:02;;;;;;;6.72;4.53;;;25.70;62.40;;;;;;5047473;28;20585;-27
2023/09/16 12:42:34;;;;;;;5.90;4.80;;;25.70;62.30;;;;;;5071486;28;20887;-27
2023/09/16 12:45:07;;;;;;;5.47;4.53;;;25.70;62.20;;;;;;5055181;28;20237;-27
2023/09/16 12:47:35;;;;;;;6.00;4.88;;;25.80;62.30;;;;;;5059809;28;20207;-26
2023/09/16 12:50:03;;;;;;;4.70;4.28;;;25.80;62.30;;;;;;5057436;28;20666;-27
2023/09/16 12:52:30;;;;;;;4.97;4.47;;;25.90;62.30;;;;;;5067995;28;20192;-27
2023/09/16 12:54:57;;;;;;;5.97;4.68;;;25.90;62.40;;;;;;5066708;28;20215;-27